sensor_id;sensor_type;location;lat;lon;timestamp;P1;durP1;ratioP1;P2;durP2;ratioP2
40170;SDS011;37650;52.790;18.268;2023-02-11T00:00:11;39.70;;;24.60;;
40170;SDS011;37650;52.790;18.268;2023-02-11T00:03:52;47.70;;;27.80;;
40170;SDS011;37650;52.790;18.268;2023-02-11T00:07:14;51.40;;;29.40;;
40170;SDS011;37650;52.790;18.268;2023-02-11T00:10:35;47.30;;;24.80;;
40170;SDS011;37650;52.790;18.268;2023-02-11T00:13:57;48.60;;;26.40;;
40170;SDS011;37650;52.790;18.268;2023-02-11T00:17:19;44.30;;;26.00;;
40170;SDS011;37650;52.790;18.268;2023-02-11T00:20:41;43.20;;;24.30;;
40170;SDS011;37650;52.790;18.268;2023-02-11T00:24:02;38.40;;;20.40;;
40170;SDS011;37650;52.790;18.268;2023-02-11T00:27:23;45.60;;;24.50;;
40170;SDS011;37650;52.790;18.268;2023-02-11T00:30:44;43.70;;;24.90;;
40170;SDS011;37650;52.790;18.268;2023-02-11T00:34:05;40.70;;;22.70;;
40170;SDS011;37650;52.790;18.268;2023-02-11T00:37:26;37.70;;;20.90;;
40170;SDS011;37650;52.790;18.268;2023-02-11T00:40:47;44.10;;;22.80;;
40170;SDS011;37650;52.790;18.268;2023-02-11T00:44:08;40.90;;;22.90;;
40170;SDS011;37650;52.790;18.268;2023-02-11T00:47:29;42.30;;;22.90;;
40170;SDS011;37650;52.790;18.268;2023-02-11T00:50:50;40.80;;;25.00;;
40170;SDS011;37650;52.790;18.268;2023-02-11T00:54:11;44.80;;;23.50;;
40170;SDS011;37650;52.790;18.268;2023-02-11T00:57:32;30.90;;;17.50;;
40170;SDS011;37650;52.790;18.268;2023-02-11T01:00:54;39.20;;;23.40;;
40170;SDS011;37650;52.790;18.268;2023-02-11T01:04:15;37.20;;;22.10;;
40170;SDS011;37650;52.790;18.268;2023-02-11T01:07:37;38.00;;;21.30;;
40170;SDS011;37650;52.790;18.268;2023-02-11T01:11:02;35.70;;;21.60;;
40170;SDS011;37650;52.790;18.268;2023-02-11T01:14:24;39.90;;;20.70;;
40170;SDS011;37650;52.790;18.268;2023-02-11T01:17:45;45.90;;;27.00;;
40170;SDS011;37650;52.790;18.268;2023-02-11T01:21:07;43.70;;;23.50;;
40170;SDS011;37650;52.790;18.268;2023-02-11T01:24:28;39.80;;;22.50;;
40170;SDS011;37650;52.790;18.268;2023-02-11T01:27:49;37.90;;;21.10;;
40170;SDS011;37650;52.790;18.268;2023-02-11T01:31:10;35.10;;;21.20;;
40170;SDS011;37650;52.790;18.268;2023-02-11T01:34:31;30.90;;;18.80;;
40170;SDS011;37650;52.790;18.268;2023-02-11T01:37:52;38.60;;;22.20;;
40170;SDS011;37650;52.790;18.268;2023-02-11T01:41:13;35.50;;;21.00;;
40170;SDS011;37650;52.790;18.268;2023-02-11T01:44:36;30.20;;;17.90;;
40170;SDS011;37650;52.790;18.268;2023-02-11T01:47:59;37.30;;;21.30;;
40170;SDS011;37650;52.790;18.268;2023-02-11T01:51:26;38.10;;;22.80;;
40170;SDS011;37650;52.790;18.268;2023-02-11T01:54:56;33.20;;;19.40;;
40170;SDS011;37650;52.790;18.268;2023-02-11T01:58:40;33.70;;;20.40;;
40170;SDS011;37650;52.790;18.268;2023-02-11T02:02:05;29.70;;;16.30;;
40170;SDS011;37650;52.790;18.268;2023-02-11T02:05:31;35.20;;;20.00;;
40170;SDS011;37650;52.790;18.268;2023-02-11T02:09:14;34.80;;;21.10;;
40170;SDS011;37650;52.790;18.268;2023-02-11T02:12:39;32.40;;;18.70;;
40170;SDS011;37650;52.790;18.268;2023-02-11T02:16:02;33.80;;;20.30;;
40170;SDS011;37650;52.790;18.268;2023-02-11T02:31:02;35.90;;;18.80;;
40170;SDS011;37650;52.790;18.268;2023-02-11T02:34:49;34.90;;;18.20;;
40170;SDS011;37650;52.790;18.268;2023-02-11T02:38:19;45.70;;;26.20;;
40170;SDS011;37650;52.790;18.268;2023-02-11T02:41:46;36.60;;;21.20;;
40170;SDS011;37650;52.790;18.268;2023-02-11T02:45:08;40.90;;;22.50;;
40170;SDS011;37650;52.790;18.268;2023-02-11T02:48:32;33.50;;;19.60;;
40170;SDS011;37650;52.790;18.268;2023-02-11T02:55:29;38.50;;;22.60;;
40170;SDS011;37650;52.790;18.268;2023-02-11T03:02:52;38.00;;;19.50;;
40170;SDS011;37650;52.790;18.268;2023-02-11T03:06:31;33.90;;;19.70;;
40170;SDS011;37650;52.790;18.268;2023-02-11T03:09:57;32.60;;;20.30;;
40170;SDS011;37650;52.790;18.268;2023-02-11T03:13:23;37.30;;;23.30;;
40170;SDS011;37650;52.790;18.268;2023-02-11T03:16:49;34.80;;;21.00;;
40170;SDS011;37650;52.790;18.268;2023-02-11T03:20:12;39.30;;;21.70;;
40170;SDS011;37650;52.790;18.268;2023-02-11T03:23:39;41.00;;;23.10;;
40170;SDS011;37650;52.790;18.268;2023-02-11T03:30:44;35.40;;;20.50;;
40170;SDS011;37650;52.790;18.268;2023-02-11T03:37:50;33.90;;;20.00;;
40170;SDS011;37650;52.790;18.268;2023-02-11T03:41:19;44.40;;;26.60;;
40170;SDS011;37650;52.790;18.268;2023-02-11T03:44:43;38.50;;;24.70;;
40170;SDS011;37650;52.790;18.268;2023-02-11T03:48:17;44.80;;;23.70;;
40170;SDS011;37650;52.790;18.268;2023-02-11T03:55:08;41.60;;;23.40;;
40170;SDS011;37650;52.790;18.268;2023-02-11T03:58:35;58.60;;;33.60;;
40170;SDS011;37650;52.790;18.268;2023-02-11T04:01:56;45.20;;;26.00;;
40170;SDS011;37650;52.790;18.268;2023-02-11T04:08:38;47.80;;;28.20;;
40170;SDS011;37650;52.790;18.268;2023-02-11T04:11:59;68.70;;;36.00;;
40170;SDS011;37650;52.790;18.268;2023-02-11T04:15:20;42.10;;;27.10;;
40170;SDS011;37650;52.790;18.268;2023-02-11T04:18:41;53.10;;;29.70;;
40170;SDS011;37650;52.790;18.268;2023-02-11T04:22:03;41.20;;;23.50;;
40170;SDS011;37650;52.790;18.268;2023-02-11T04:28:46;51.90;;;28.70;;
40170;SDS011;37650;52.790;18.268;2023-02-11T04:32:07;46.30;;;26.30;;
40170;SDS011;37650;52.790;18.268;2023-02-11T04:35:28;43.40;;;25.90;;
40170;SDS011;37650;52.790;18.268;2023-02-11T04:38:49;39.60;;;25.30;;
40170;SDS011;37650;52.790;18.268;2023-02-11T04:42:10;45.40;;;26.70;;
40170;SDS011;37650;52.790;18.268;2023-02-11T04:45:32;46.60;;;28.90;;
40170;SDS011;37650;52.790;18.268;2023-02-11T04:48:52;40.90;;;25.50;;
40170;SDS011;37650;52.790;18.268;2023-02-11T04:52:13;42.50;;;26.40;;
40170;SDS011;37650;52.790;18.268;2023-02-11T04:55:34;46.80;;;27.80;;
40170;SDS011;37650;52.790;18.268;2023-02-11T04:58:55;41.80;;;26.50;;
40170;SDS011;37650;52.790;18.268;2023-02-11T05:02:16;50.80;;;32.80;;
40170;SDS011;37650;52.790;18.268;2023-02-11T05:05:38;50.70;;;30.10;;
40170;SDS011;37650;52.790;18.268;2023-02-11T05:08:59;49.40;;;28.70;;
40170;SDS011;37650;52.790;18.268;2023-02-11T05:12:20;41.20;;;24.00;;
40170;SDS011;37650;52.790;18.268;2023-02-11T05:15:41;39.10;;;24.00;;
40170;SDS011;37650;52.790;18.268;2023-02-11T05:19:02;36.60;;;20.00;;
40170;SDS011;37650;52.790;18.268;2023-02-11T05:22:23;40.20;;;28.10;;
40170;SDS011;37650;52.790;18.268;2023-02-11T05:25:44;42.80;;;27.30;;
40170;SDS011;37650;52.790;18.268;2023-02-11T05:29:05;42.10;;;26.60;;
40170;SDS011;37650;52.790;18.268;2023-02-11T05:32:26;45.70;;;29.50;;
40170;SDS011;37650;52.790;18.268;2023-02-11T05:35:47;41.30;;;25.70;;
40170;SDS011;37650;52.790;18.268;2023-02-11T05:39:08;43.80;;;26.90;;
40170;SDS011;37650;52.790;18.268;2023-02-11T05:42:29;45.00;;;26.70;;
40170;SDS011;37650;52.790;18.268;2023-02-11T05:45:50;46.10;;;29.70;;
40170;SDS011;37650;52.790;18.268;2023-02-11T05:49:11;43.70;;;27.30;;
40170;SDS011;37650;52.790;18.268;2023-02-11T05:52:32;47.00;;;29.50;;
40170;SDS011;37650;52.790;18.268;2023-02-11T05:55:53;45.40;;;25.60;;
40170;SDS011;37650;52.790;18.268;2023-02-11T05:59:14;34.30;;;21.40;;
40170;SDS011;37650;52.790;18.268;2023-02-11T06:02:35;44.80;;;25.30;;
40170;SDS011;37650;52.790;18.268;2023-02-11T06:05:57;45.50;;;27.60;;
40170;SDS011;37650;52.790;18.268;2023-02-11T06:09:17;46.90;;;29.20;;
40170;SDS011;37650;52.790;18.268;2023-02-11T06:12:38;47.00;;;28.50;;
40170;SDS011;37650;52.790;18.268;2023-02-11T06:16:00;46.50;;;28.50;;
40170;SDS011;37650;52.790;18.268;2023-02-11T06:22:42;41.50;;;26.10;;
40170;SDS011;37650;52.790;18.268;2023-02-11T06:26:07;44.10;;;26.50;;
40170;SDS011;37650;52.790;18.268;2023-02-11T06:29:34;49.50;;;27.10;;
40170;SDS011;37650;52.790;18.268;2023-02-11T06:32:57;43.00;;;27.60;;
40170;SDS011;37650;52.790;18.268;2023-02-11T06:36:18;42.70;;;26.60;;
40170;SDS011;37650;52.790;18.268;2023-02-11T06:39:40;44.00;;;27.70;;
40170;SDS011;37650;52.790;18.268;2023-02-11T06:43:03;48.70;;;26.90;;
40170;SDS011;37650;52.790;18.268;2023-02-11T06:46:24;45.10;;;28.00;;
40170;SDS011;37650;52.790;18.268;2023-02-11T06:49:45;49.80;;;27.80;;
40170;SDS011;37650;52.790;18.268;2023-02-11T06:53:06;43.70;;;25.80;;
40170;SDS011;37650;52.790;18.268;2023-02-11T06:56:27;50.40;;;30.40;;
40170;SDS011;37650;52.790;18.268;2023-02-11T06:59:48;44.90;;;28.00;;
40170;SDS011;37650;52.790;18.268;2023-02-11T07:03:09;44.60;;;26.10;;
40170;SDS011;37650;52.790;18.268;2023-02-11T07:06:30;42.20;;;27.30;;
40170;SDS011;37650;52.790;18.268;2023-02-11T07:09:51;39.50;;;26.20;;
40170;SDS011;37650;52.790;18.268;2023-02-11T07:13:12;48.00;;;29.70;;
40170;SDS011;37650;52.790;18.268;2023-02-11T07:16:33;40.80;;;28.20;;
40170;SDS011;37650;52.790;18.268;2023-02-11T07:19:54;44.40;;;28.50;;
40170;SDS011;37650;52.790;18.268;2023-02-11T07:23:15;43.50;;;27.70;;
40170;SDS011;37650;52.790;18.268;2023-02-11T07:26:36;46.40;;;29.80;;
40170;SDS011;37650;52.790;18.268;2023-02-11T07:29:58;43.80;;;27.60;;
40170;SDS011;37650;52.790;18.268;2023-02-11T07:33:19;51.30;;;28.90;;
40170;SDS011;37650;52.790;18.268;2023-02-11T07:36:40;49.30;;;30.60;;
40170;SDS011;37650;52.790;18.268;2023-02-11T07:40:02;46.20;;;29.10;;
40170;SDS011;37650;52.790;18.268;2023-02-11T07:43:24;45.60;;;28.40;;
40170;SDS011;37650;52.790;18.268;2023-02-11T07:46:45;48.70;;;30.70;;
40170;SDS011;37650;52.790;18.268;2023-02-11T07:50:08;53.40;;;31.90;;
40170;SDS011;37650;52.790;18.268;2023-02-11T07:53:30;45.10;;;22.80;;
40170;SDS011;37650;52.790;18.268;2023-02-11T07:56:51;49.70;;;29.20;;
40170;SDS011;37650;52.790;18.268;2023-02-11T08:00:13;44.50;;;28.70;;
40170;SDS011;37650;52.790;18.268;2023-02-11T08:03:34;43.10;;;28.10;;
40170;SDS011;37650;52.790;18.268;2023-02-11T08:06:55;43.60;;;28.90;;
40170;SDS011;37650;52.790;18.268;2023-02-11T08:13:38;55.50;;;33.00;;
40170;SDS011;37650;52.790;18.268;2023-02-11T08:16:59;51.20;;;30.90;;
40170;SDS011;37650;52.790;18.268;2023-02-11T08:20:20;48.90;;;31.80;;
40170;SDS011;37650;52.790;18.268;2023-02-11T08:23:42;44.80;;;28.10;;
40170;SDS011;37650;52.790;18.268;2023-02-11T08:27:03;46.10;;;29.10;;
40170;SDS011;37650;52.790;18.268;2023-02-11T08:30:24;42.90;;;28.50;;
40170;SDS011;37650;52.790;18.268;2023-02-11T08:33:45;43.00;;;28.60;;
40170;SDS011;37650;52.790;18.268;2023-02-11T08:37:06;43.30;;;29.30;;
40170;SDS011;37650;52.790;18.268;2023-02-11T08:40:28;45.50;;;28.80;;
40170;SDS011;37650;52.790;18.268;2023-02-11T08:43:49;42.20;;;24.80;;
40170;SDS011;37650;52.790;18.268;2023-02-11T08:47:11;46.80;;;27.50;;
40170;SDS011;37650;52.790;18.268;2023-02-11T08:50:32;39.90;;;26.50;;
40170;SDS011;37650;52.790;18.268;2023-02-11T08:53:54;44.00;;;27.50;;
40170;SDS011;37650;52.790;18.268;2023-02-11T08:57:16;41.30;;;28.20;;
40170;SDS011;37650;52.790;18.268;2023-02-11T09:00:37;42.30;;;27.80;;
40170;SDS011;37650;52.790;18.268;2023-02-11T09:03:58;46.40;;;31.40;;
40170;SDS011;37650;52.790;18.268;2023-02-11T09:07:20;44.50;;;28.70;;
40170;SDS011;37650;52.790;18.268;2023-02-11T09:10:41;45.40;;;29.50;;
40170;SDS011;37650;52.790;18.268;2023-02-11T09:14:03;43.70;;;27.30;;
40170;SDS011;37650;52.790;18.268;2023-02-11T09:17:24;42.90;;;28.40;;
40170;SDS011;37650;52.790;18.268;2023-02-11T09:20:45;43.00;;;25.10;;
40170;SDS011;37650;52.790;18.268;2023-02-11T09:24:06;45.70;;;30.50;;
40170;SDS011;37650;52.790;18.268;2023-02-11T09:27:27;43.90;;;29.70;;
40170;SDS011;37650;52.790;18.268;2023-02-11T09:30:48;43.70;;;29.70;;
40170;SDS011;37650;52.790;18.268;2023-02-11T09:34:10;46.00;;;28.30;;
40170;SDS011;37650;52.790;18.268;2023-02-11T09:37:31;41.00;;;27.60;;
40170;SDS011;37650;52.790;18.268;2023-02-11T09:40:52;44.50;;;29.20;;
40170;SDS011;37650;52.790;18.268;2023-02-11T09:44:20;42.70;;;28.60;;
40170;SDS011;37650;52.790;18.268;2023-02-11T09:47:47;51.20;;;32.20;;
40170;SDS011;37650;52.790;18.268;2023-02-11T09:51:39;44.20;;;29.90;;
40170;SDS011;37650;52.790;18.268;2023-02-11T09:58:39;40.00;;;27.10;;
40170;SDS011;37650;52.790;18.268;2023-02-11T10:02:10;49.10;;;31.70;;
40170;SDS011;37650;52.790;18.268;2023-02-11T10:05:47;46.10;;;29.30;;
40170;SDS011;37650;52.790;18.268;2023-02-11T10:09:40;46.40;;;29.20;;
40170;SDS011;37650;52.790;18.268;2023-02-11T10:16:50;57.10;;;32.80;;
40170;SDS011;37650;52.790;18.268;2023-02-11T10:23:54;46.20;;;29.90;;
40170;SDS011;37650;52.790;18.268;2023-02-11T10:27:20;51.70;;;32.30;;
40170;SDS011;37650;52.790;18.268;2023-02-11T10:30:57;48.60;;;31.00;;
40170;SDS011;37650;52.790;18.268;2023-02-11T10:34:20;41.50;;;28.60;;
40170;SDS011;37650;52.790;18.268;2023-02-11T10:37:42;39.10;;;24.30;;
40170;SDS011;37650;52.790;18.268;2023-02-11T10:41:03;48.10;;;29.70;;
40170;SDS011;37650;52.790;18.268;2023-02-11T10:47:55;45.90;;;28.40;;
40170;SDS011;37650;52.790;18.268;2023-02-11T10:58:27;46.60;;;28.40;;
40170;SDS011;37650;52.790;18.268;2023-02-11T11:02:04;42.60;;;29.40;;
40170;SDS011;37650;52.790;18.268;2023-02-11T11:06:03;46.90;;;29.70;;
40170;SDS011;37650;52.790;18.268;2023-02-11T11:09:28;39.90;;;27.40;;
40170;SDS011;37650;52.790;18.268;2023-02-11T11:12:50;42.10;;;26.60;;
40170;SDS011;37650;52.790;18.268;2023-02-11T11:19:31;39.70;;;27.60;;
40170;SDS011;37650;52.790;18.268;2023-02-11T11:23:05;43.30;;;29.40;;
40170;SDS011;37650;52.790;18.268;2023-02-11T11:26:42;45.70;;;31.30;;
40170;SDS011;37650;52.790;18.268;2023-02-11T11:30:13;51.00;;;32.80;;
40170;SDS011;37650;52.790;18.268;2023-02-11T11:33:36;51.60;;;32.10;;
40170;SDS011;37650;52.790;18.268;2023-02-11T11:37:10;51.50;;;32.80;;
40170;SDS011;37650;52.790;18.268;2023-02-11T11:40:33;52.80;;;34.60;;
40170;SDS011;37650;52.790;18.268;2023-02-11T11:44:16;69.60;;;48.10;;
40170;SDS011;37650;52.790;18.268;2023-02-11T11:51:16;87.90;;;58.30;;
40170;SDS011;37650;52.790;18.268;2023-02-11T11:54:37;58.90;;;43.30;;
40170;SDS011;37650;52.790;18.268;2023-02-11T11:58:03;56.70;;;39.30;;
40170;SDS011;37650;52.790;18.268;2023-02-11T12:08:55;58.70;;;41.40;;
40170;SDS011;37650;52.790;18.268;2023-02-11T12:26:22;35.80;;;25.60;;
40170;SDS011;37650;52.790;18.268;2023-02-11T12:43:49;43.60;;;28.50;;
40170;SDS011;37650;52.790;18.268;2023-02-11T12:51:21;29.60;;;21.10;;
40170;SDS011;37650;52.790;18.268;2023-02-11T12:55:06;42.50;;;26.50;;
40170;SDS011;37650;52.790;18.268;2023-02-11T12:58:50;33.00;;;21.30;;
40170;SDS011;37650;52.790;18.268;2023-02-11T13:02:39;30.70;;;21.80;;
40170;SDS011;37650;52.790;18.268;2023-02-11T13:06:19;37.60;;;23.20;;
40170;SDS011;37650;52.790;18.268;2023-02-11T13:09:58;31.30;;;20.80;;
40170;SDS011;37650;52.790;18.268;2023-02-11T13:36:15;22.40;;;15.60;;
40170;SDS011;37650;52.790;18.268;2023-02-11T13:39:41;28.70;;;20.20;;
40170;SDS011;37650;52.790;18.268;2023-02-11T13:46:29;24.00;;;19.00;;
40170;SDS011;37650;52.790;18.268;2023-02-11T13:50:20;24.00;;;16.20;;
40170;SDS011;37650;52.790;18.268;2023-02-11T13:53:56;27.60;;;20.00;;
40170;SDS011;37650;52.790;18.268;2023-02-11T13:57:22;22.80;;;16.30;;
40170;SDS011;37650;52.790;18.268;2023-02-11T14:00:49;25.40;;;18.50;;
40170;SDS011;37650;52.790;18.268;2023-02-11T14:04:21;25.00;;;17.50;;
40170;SDS011;37650;52.790;18.268;2023-02-11T14:11:46;22.50;;;16.60;;
40170;SDS011;37650;52.790;18.268;2023-02-11T14:26:22;21.50;;;16.30;;
40170;SDS011;37650;52.790;18.268;2023-02-11T14:37:50;24.20;;;15.10;;
40170;SDS011;37650;52.790;18.268;2023-02-11T14:41:25;23.30;;;16.40;;
40170;SDS011;37650;52.790;18.268;2023-02-11T14:44:49;23.60;;;16.90;;
40170;SDS011;37650;52.790;18.268;2023-02-11T14:48:15;24.40;;;18.20;;
40170;SDS011;37650;52.790;18.268;2023-02-11T14:51:38;20.70;;;15.50;;
40170;SDS011;37650;52.790;18.268;2023-02-11T14:55:04;27.10;;;19.10;;
40170;SDS011;37650;52.790;18.268;2023-02-11T14:58:35;21.70;;;15.40;;
40170;SDS011;37650;52.790;18.268;2023-02-11T15:01:56;25.80;;;17.20;;
40170;SDS011;37650;52.790;18.268;2023-02-11T15:08:52;22.20;;;17.00;;
40170;SDS011;37650;52.790;18.268;2023-02-11T15:12:19;17.00;;;13.40;;
40170;SDS011;37650;52.790;18.268;2023-02-11T15:15:46;19.90;;;13.70;;
40170;SDS011;37650;52.790;18.268;2023-02-11T15:19:18;19.40;;;14.90;;
40170;SDS011;37650;52.790;18.268;2023-02-11T15:22:54;18.10;;;13.90;;
40170;SDS011;37650;52.790;18.268;2023-02-11T15:26:20;22.10;;;15.30;;
40170;SDS011;37650;52.790;18.268;2023-02-11T15:29:43;18.00;;;14.00;;
40170;SDS011;37650;52.790;18.268;2023-02-11T15:33:18;26.60;;;17.10;;
40170;SDS011;37650;52.790;18.268;2023-02-11T15:36:42;22.60;;;16.30;;
40170;SDS011;37650;52.790;18.268;2023-02-11T15:40:18;24.00;;;16.80;;
40170;SDS011;37650;52.790;18.268;2023-02-11T15:43:45;22.00;;;16.30;;
40170;SDS011;37650;52.790;18.268;2023-02-11T15:47:15;20.60;;;16.30;;
40170;SDS011;37650;52.790;18.268;2023-02-11T15:50:41;22.40;;;15.40;;
40170;SDS011;37650;52.790;18.268;2023-02-11T15:54:21;24.40;;;16.40;;
40170;SDS011;37650;52.790;18.268;2023-02-11T15:57:52;26.20;;;16.00;;
40170;SDS011;37650;52.790;18.268;2023-02-11T16:01:27;24.60;;;17.60;;
40170;SDS011;37650;52.790;18.268;2023-02-11T16:05:07;26.00;;;17.10;;
40170;SDS011;37650;52.790;18.268;2023-02-11T16:08:29;30.90;;;20.80;;
40170;SDS011;37650;52.790;18.268;2023-02-11T16:11:54;29.90;;;19.50;;
40170;SDS011;37650;52.790;18.268;2023-02-11T16:15:28;29.40;;;22.20;;
40170;SDS011;37650;52.790;18.268;2023-02-11T16:19:01;25.30;;;17.90;;
40170;SDS011;37650;52.790;18.268;2023-02-11T16:22:26;23.60;;;17.10;;
40170;SDS011;37650;52.790;18.268;2023-02-11T16:25:59;32.70;;;20.90;;
40170;SDS011;37650;52.790;18.268;2023-02-11T16:29:29;36.30;;;23.30;;
40170;SDS011;37650;52.790;18.268;2023-02-11T16:32:54;30.40;;;22.30;;
40170;SDS011;37650;52.790;18.268;2023-02-11T16:36:18;32.90;;;22.40;;
40170;SDS011;37650;52.790;18.268;2023-02-11T16:39:40;33.30;;;22.10;;
40170;SDS011;37650;52.790;18.268;2023-02-11T16:43:02;34.30;;;20.40;;
40170;SDS011;37650;52.790;18.268;2023-02-11T16:46:24;26.90;;;18.10;;
40170;SDS011;37650;52.790;18.268;2023-02-11T16:49:49;28.90;;;18.40;;
40170;SDS011;37650;52.790;18.268;2023-02-11T16:53:12;27.50;;;18.70;;
40170;SDS011;37650;52.790;18.268;2023-02-11T16:56:37;24.00;;;16.60;;
40170;SDS011;37650;52.790;18.268;2023-02-11T16:59:59;24.70;;;18.10;;
40170;SDS011;37650;52.790;18.268;2023-02-11T17:03:32;33.90;;;20.20;;
40170;SDS011;37650;52.790;18.268;2023-02-11T17:07:01;34.30;;;22.80;;
40170;SDS011;37650;52.790;18.268;2023-02-11T17:10:26;30.70;;;21.20;;
40170;SDS011;37650;52.790;18.268;2023-02-11T17:13:52;31.60;;;19.70;;
40170;SDS011;37650;52.790;18.268;2023-02-11T17:17:15;29.50;;;19.40;;
40170;SDS011;37650;52.790;18.268;2023-02-11T17:20:40;27.20;;;18.70;;
40170;SDS011;37650;52.790;18.268;2023-02-11T17:24:08;22.50;;;16.30;;
40170;SDS011;37650;52.790;18.268;2023-02-11T17:27:37;31.70;;;17.70;;
40170;SDS011;37650;52.790;18.268;2023-02-11T17:31:09;26.90;;;19.40;;
40170;SDS011;37650;52.790;18.268;2023-02-11T17:34:38;26.00;;;16.50;;
40170;SDS011;37650;52.790;18.268;2023-02-11T17:38:02;21.00;;;14.90;;
40170;SDS011;37650;52.790;18.268;2023-02-11T17:41:27;24.70;;;16.10;;
40170;SDS011;37650;52.790;18.268;2023-02-11T17:44:57;25.50;;;17.40;;
40170;SDS011;37650;52.790;18.268;2023-02-11T17:48:24;29.50;;;17.50;;
40170;SDS011;37650;52.790;18.268;2023-02-11T17:51:52;21.30;;;15.90;;
40170;SDS011;37650;52.790;18.268;2023-02-11T17:55:17;22.70;;;15.20;;
40170;SDS011;37650;52.790;18.268;2023-02-11T17:58:39;22.10;;;15.10;;
40170;SDS011;37650;52.790;18.268;2023-02-11T18:02:05;22.30;;;14.40;;
40170;SDS011;37650;52.790;18.268;2023-02-11T18:05:34;20.40;;;15.20;;
40170;SDS011;37650;52.790;18.268;2023-02-11T18:08:57;19.80;;;12.20;;
40170;SDS011;37650;52.790;18.268;2023-02-11T18:12:22;30.60;;;18.50;;
40170;SDS011;37650;52.790;18.268;2023-02-11T18:15:51;23.30;;;13.50;;
40170;SDS011;37650;52.790;18.268;2023-02-11T18:19:14;22.70;;;13.20;;
40170;SDS011;37650;52.790;18.268;2023-02-11T18:22:38;20.80;;;11.80;;
40170;SDS011;37650;52.790;18.268;2023-02-11T18:26:08;21.80;;;12.80;;
40170;SDS011;37650;52.790;18.268;2023-02-11T18:29:31;23.60;;;12.40;;
40170;SDS011;37650;52.790;18.268;2023-02-11T18:32:54;22.70;;;13.20;;
40170;SDS011;37650;52.790;18.268;2023-02-11T18:36:17;15.90;;;10.40;;
40170;SDS011;37650;52.790;18.268;2023-02-11T18:39:40;16.50;;;10.20;;
40170;SDS011;37650;52.790;18.268;2023-02-11T18:43:03;18.80;;;12.70;;
40170;SDS011;37650;52.790;18.268;2023-02-11T18:46:26;18.00;;;10.60;;
40170;SDS011;37650;52.790;18.268;2023-02-11T18:49:47;17.70;;;9.30;;
40170;SDS011;37650;52.790;18.268;2023-02-11T18:53:09;18.20;;;9.60;;
40170;SDS011;37650;52.790;18.268;2023-02-11T18:56:36;17.70;;;9.90;;
40170;SDS011;37650;52.790;18.268;2023-02-11T18:59:58;24.10;;;11.00;;
40170;SDS011;37650;52.790;18.268;2023-02-11T19:03:22;14.60;;;9.40;;
40170;SDS011;37650;52.790;18.268;2023-02-11T19:06:47;18.80;;;9.40;;
40170;SDS011;37650;52.790;18.268;2023-02-11T19:10:10;19.50;;;9.50;;
40170;SDS011;37650;52.790;18.268;2023-02-11T19:13:35;16.40;;;9.70;;
40170;SDS011;37650;52.790;18.268;2023-02-11T19:17:00;21.30;;;11.00;;
40170;SDS011;37650;52.790;18.268;2023-02-11T19:20:28;17.30;;;9.10;;
40170;SDS011;37650;52.790;18.268;2023-02-11T19:23:55;23.10;;;12.00;;
40170;SDS011;37650;52.790;18.268;2023-02-11T19:27:21;20.30;;;10.90;;
40170;SDS011;37650;52.790;18.268;2023-02-11T19:30:44;17.30;;;10.40;;
40170;SDS011;37650;52.790;18.268;2023-02-11T19:34:05;21.40;;;11.10;;
40170;SDS011;37650;52.790;18.268;2023-02-11T19:37:36;21.40;;;11.50;;
40170;SDS011;37650;52.790;18.268;2023-02-11T19:40:58;22.00;;;13.30;;
40170;SDS011;37650;52.790;18.268;2023-02-11T19:44:22;22.50;;;11.60;;
40170;SDS011;37650;52.790;18.268;2023-02-11T19:47:45;22.20;;;11.30;;
40170;SDS011;37650;52.790;18.268;2023-02-11T19:51:09;21.60;;;11.00;;
40170;SDS011;37650;52.790;18.268;2023-02-11T19:54:33;21.90;;;11.00;;
40170;SDS011;37650;52.790;18.268;2023-02-11T19:57:57;22.90;;;11.30;;
40170;SDS011;37650;52.790;18.268;2023-02-11T20:01:23;25.40;;;11.50;;
40170;SDS011;37650;52.790;18.268;2023-02-11T20:04:46;22.00;;;11.50;;
40170;SDS011;37650;52.790;18.268;2023-02-11T20:08:08;22.40;;;10.30;;
40170;SDS011;37650;52.790;18.268;2023-02-11T20:11:33;17.30;;;9.30;;
40170;SDS011;37650;52.790;18.268;2023-02-11T20:14:58;16.40;;;8.60;;
40170;SDS011;37650;52.790;18.268;2023-02-11T20:18:22;21.50;;;9.60;;
40170;SDS011;37650;52.790;18.268;2023-02-11T20:21:45;25.70;;;10.50;;
40170;SDS011;37650;52.790;18.268;2023-02-11T20:25:11;24.00;;;10.60;;
40170;SDS011;37650;52.790;18.268;2023-02-11T20:28:33;23.80;;;10.40;;
40170;SDS011;37650;52.790;18.268;2023-02-11T20:31:56;21.10;;;10.80;;
40170;SDS011;37650;52.790;18.268;2023-02-11T20:35:18;22.10;;;10.60;;
40170;SDS011;37650;52.790;18.268;2023-02-11T20:38:40;20.40;;;9.60;;
40170;SDS011;37650;52.790;18.268;2023-02-11T20:42:04;20.70;;;10.60;;
40170;SDS011;37650;52.790;18.268;2023-02-11T20:45:27;24.80;;;10.90;;
40170;SDS011;37650;52.790;18.268;2023-02-11T20:48:49;27.50;;;12.00;;
40170;SDS011;37650;52.790;18.268;2023-02-11T20:52:13;26.30;;;12.80;;
40170;SDS011;37650;52.790;18.268;2023-02-11T20:55:38;20.70;;;10.60;;
40170;SDS011;37650;52.790;18.268;2023-02-11T20:59:00;30.50;;;11.00;;
40170;SDS011;37650;52.790;18.268;2023-02-11T21:02:24;25.70;;;12.20;;
40170;SDS011;37650;52.790;18.268;2023-02-11T21:05:48;31.20;;;13.00;;
40170;SDS011;37650;52.790;18.268;2023-02-11T21:09:11;30.40;;;12.80;;
40170;SDS011;37650;52.790;18.268;2023-02-11T21:12:35;28.20;;;11.90;;
40170;SDS011;37650;52.790;18.268;2023-02-11T21:15:57;28.40;;;10.70;;
40170;SDS011;37650;52.790;18.268;2023-02-11T21:19:19;23.60;;;10.30;;
40170;SDS011;37650;52.790;18.268;2023-02-11T21:22:42;20.80;;;10.70;;
40170;SDS011;37650;52.790;18.268;2023-02-11T21:26:04;25.10;;;11.20;;
40170;SDS011;37650;52.790;18.268;2023-02-11T21:29:27;26.20;;;11.10;;
40170;SDS011;37650;52.790;18.268;2023-02-11T21:32:49;25.30;;;11.20;;
40170;SDS011;37650;52.790;18.268;2023-02-11T21:36:11;31.50;;;11.20;;
40170;SDS011;37650;52.790;18.268;2023-02-11T21:39:38;25.20;;;9.90;;
40170;SDS011;37650;52.790;18.268;2023-02-11T21:43:03;26.60;;;9.80;;
40170;SDS011;37650;52.790;18.268;2023-02-11T21:46:25;24.50;;;10.70;;
40170;SDS011;37650;52.790;18.268;2023-02-11T21:49:47;24.60;;;11.10;;
40170;SDS011;37650;52.790;18.268;2023-02-11T21:53:08;23.30;;;8.70;;
40170;SDS011;37650;52.790;18.268;2023-02-11T21:56:30;20.60;;;6.50;;
40170;SDS011;37650;52.790;18.268;2023-02-11T21:59:53;15.70;;;7.30;;
40170;SDS011;37650;52.790;18.268;2023-02-11T22:03:16;16.70;;;5.80;;
40170;SDS011;37650;52.790;18.268;2023-02-11T22:06:37;18.30;;;6.70;;
40170;SDS011;37650;52.790;18.268;2023-02-11T22:09:59;15.50;;;6.60;;
40170;SDS011;37650;52.790;18.268;2023-02-11T22:13:21;19.50;;;6.30;;
40170;SDS011;37650;52.790;18.268;2023-02-11T22:16:43;18.00;;;6.60;;
40170;SDS011;37650;52.790;18.268;2023-02-11T22:20:05;15.50;;;5.60;;
40170;SDS011;37650;52.790;18.268;2023-02-11T22:23:27;19.60;;;5.60;;